sensor_id;sensor_type;location;lat;lon;timestamp;P1;durP1;ratioP1;P2;durP2;ratioP2
60292;SDS011;52402;52.670;6.750;2024-01-06T00:01:47;36.58;;;34.67;;
60292;SDS011;52402;52.670;6.750;2024-01-06T00:04:12;37.78;;;35.83;;
60292;SDS011;52402;52.670;6.750;2024-01-06T00:06:38;38.63;;;36.63;;
60292;SDS011;52402;52.670;6.750;2024-01-06T00:09:11;37.88;;;35.88;;
60292;SDS011;52402;52.670;6.750;2024-01-06T00:11:38;37.80;;;35.80;;
60292;SDS011;52402;52.670;6.750;2024-01-06T00:14:04;38.80;;;36.80;;
60292;SDS011;52402;52.670;6.750;2024-01-06T00:16:30;37.08;;;35.17;;
60292;SDS011;52402;52.670;6.750;2024-01-06T00:18:55;36.53;;;34.63;;
60292;SDS011;52402;52.670;6.750;2024-01-06T00:21:22;36.67;;;34.78;;
60292;SDS011;52402;52.670;6.750;2024-01-06T00:23:48;37.22;;;35.33;;
60292;SDS011;52402;52.670;6.750;2024-01-06T00:26:13;38.05;;;36.15;;
60292;SDS011;52402;52.670;6.750;2024-01-06T00:28:39;36.45;;;34.55;;
60292;SDS011;52402;52.670;6.750;2024-01-06T00:31:04;36.97;;;35.08;;
60292;SDS011;52402;52.670;6.750;2024-01-06T00:33:31;36.25;;;34.40;;
60292;SDS011;52402;52.670;6.750;2024-01-06T00:35:58;37.10;;;35.20;;
60292;SDS011;52402;52.670;6.750;2024-01-06T00:38:24;35.60;;;33.80;;
60292;SDS011;52402;52.670;6.750;2024-01-06T00:40:50;36.58;;;34.67;;
60292;SDS011;52402;52.670;6.750;2024-01-06T00:43:16;37.17;;;35.28;;
60292;SDS011;52402;52.670;6.750;2024-01-06T00:45:42;37.17;;;35.28;;
60292;SDS011;52402;52.670;6.750;2024-01-06T00:48:08;37.67;;;35.75;;
60292;SDS011;52402;52.670;6.750;2024-01-06T00:50:34;37.58;;;35.67;;
60292;SDS011;52402;52.670;6.750;2024-01-06T00:55:37;35.88;;;34.03;;
60292;SDS011;52402;52.670;6.750;2024-01-06T00:58:03;36.70;;;34.80;;
60292;SDS011;52402;52.670;6.750;2024-01-06T01:00:29;37.30;;;35.40;;
60292;SDS011;52402;52.670;6.750;2024-01-06T01:02:54;38.05;;;36.15;;
60292;SDS011;52402;52.670;6.750;2024-01-06T01:05:20;37.45;;;35.55;;
60292;SDS011;52402;52.670;6.750;2024-01-06T01:07:49;37.33;;;35.42;;
60292;SDS011;52402;52.670;6.750;2024-01-06T01:12:43;36.95;;;35.05;;
60292;SDS011;52402;52.670;6.750;2024-01-06T01:15:09;36.47;;;34.60;;
60292;SDS011;52402;52.670;6.750;2024-01-06T01:17:35;36.05;;;34.25;;
60292;SDS011;52402;52.670;6.750;2024-01-06T01:20:02;35.25;;;33.45;;
60292;SDS011;52402;52.670;6.750;2024-01-06T01:22:28;36.08;;;34.28;;
60292;SDS011;52402;52.670;6.750;2024-01-06T01:24:58;37.13;;;35.22;;
60292;SDS011;52402;52.670;6.750;2024-01-06T01:27:23;35.97;;;34.17;;
60292;SDS011;52402;52.670;6.750;2024-01-06T01:29:49;36.65;;;34.75;;
60292;SDS011;52402;52.670;6.750;2024-01-06T01:32:18;35.55;;;33.75;;
60292;SDS011;52402;52.670;6.750;2024-01-06T01:34:43;37.90;;;36.00;;
60292;SDS011;52402;52.670;6.750;2024-01-06T01:37:09;37.78;;;35.88;;
60292;SDS011;52402;52.670;6.750;2024-01-06T01:39:35;36.15;;;34.33;;
60292;SDS011;52402;52.670;6.750;2024-01-06T01:42:07;37.60;;;35.70;;
60292;SDS011;52402;52.670;6.750;2024-01-06T01:44:34;38.03;;;36.13;;
60292;SDS011;52402;52.670;6.750;2024-01-06T01:46:59;37.20;;;35.30;;
60292;SDS011;52402;52.670;6.750;2024-01-06T01:49:25;35.95;;;34.15;;
60292;SDS011;52402;52.670;6.750;2024-01-06T01:51:51;36.70;;;34.80;;
60292;SDS011;52402;52.670;6.750;2024-01-06T01:54:17;37.13;;;35.22;;
60292;SDS011;52402;52.670;6.750;2024-01-06T01:56:43;34.88;;;33.08;;
60292;SDS011;52402;52.670;6.750;2024-01-06T01:59:10;35.83;;;34.03;;
60292;SDS011;52402;52.670;6.750;2024-01-06T02:01:38;36.35;;;34.55;;
60292;SDS011;52402;52.670;6.750;2024-01-06T02:04:07;37.25;;;35.35;;
60292;SDS011;52402;52.670;6.750;2024-01-06T02:06:35;35.90;;;34.10;;
60292;SDS011;52402;52.670;6.750;2024-01-06T02:09:00;35.63;;;33.83;;
60292;SDS011;52402;52.670;6.750;2024-01-06T02:11:27;35.78;;;33.97;;
60292;SDS011;52402;52.670;6.750;2024-01-06T02:13:52;36.20;;;34.40;;
60292;SDS011;52402;52.670;6.750;2024-01-06T02:16:18;36.75;;;34.90;;
60292;SDS011;52402;52.670;6.750;2024-01-06T02:18:43;36.70;;;34.80;;
60292;SDS011;52402;52.670;6.750;2024-01-06T02:21:09;36.53;;;34.70;;
60292;SDS011;52402;52.670;6.750;2024-01-06T02:23:36;38.63;;;36.67;;
60292;SDS011;52402;52.670;6.750;2024-01-06T02:26:02;38.53;;;36.53;;
60292;SDS011;52402;52.670;6.750;2024-01-06T02:28:28;38.50;;;36.50;;
60292;SDS011;52402;52.670;6.750;2024-01-06T02:30:53;37.47;;;35.58;;
60292;SDS011;52402;52.670;6.750;2024-01-06T02:33:19;36.53;;;34.72;;
60292;SDS011;52402;52.670;6.750;2024-01-06T02:35:48;37.78;;;35.88;;
60292;SDS011;52402;52.670;6.750;2024-01-06T02:38:13;37.85;;;35.95;;
60292;SDS011;52402;52.670;6.750;2024-01-06T02:40:39;36.63;;;34.72;;
60292;SDS011;52402;52.670;6.750;2024-01-06T02:43:04;37.08;;;35.17;;
60292;SDS011;52402;52.670;6.750;2024-01-06T02:45:30;36.88;;;34.97;;
60292;SDS011;52402;52.670;6.750;2024-01-06T02:47:55;37.30;;;35.40;;
60292;SDS011;52402;52.670;6.750;2024-01-06T02:50:21;37.53;;;35.63;;
60292;SDS011;52402;52.670;6.750;2024-01-06T02:52:47;37.78;;;35.88;;
60292;SDS011;52402;52.670;6.750;2024-01-06T02:55:13;36.65;;;34.85;;
60292;SDS011;52402;52.670;6.750;2024-01-06T02:57:39;35.45;;;33.65;;
60292;SDS011;52402;52.670;6.750;2024-01-06T03:00:06;35.15;;;33.35;;
60292;SDS011;52402;52.670;6.750;2024-01-06T03:02:32;35.45;;;33.65;;
60292;SDS011;52402;52.670;6.750;2024-01-06T03:04:58;36.00;;;34.20;;
60292;SDS011;52402;52.670;6.750;2024-01-06T03:07:24;34.17;;;32.47;;
60292;SDS011;52402;52.670;6.750;2024-01-06T03:09:49;36.88;;;35.08;;
60292;SDS011;52402;52.670;6.750;2024-01-06T03:12:15;36.65;;;34.85;;
60292;SDS011;52402;52.670;6.750;2024-01-06T03:14:40;36.42;;;34.63;;
60292;SDS011;52402;52.670;6.750;2024-01-06T03:17:06;36.78;;;34.97;;
60292;SDS011;52402;52.670;6.750;2024-01-06T03:19:31;35.97;;;34.17;;
60292;SDS011;52402;52.670;6.750;2024-01-06T03:21:57;35.78;;;33.97;;
60292;SDS011;52402;52.670;6.750;2024-01-06T03:24:23;36.50;;;34.70;;
60292;SDS011;52402;52.670;6.750;2024-01-06T03:26:49;37.63;;;35.72;;
60292;SDS011;52402;52.670;6.750;2024-01-06T03:29:15;36.30;;;34.50;;
60292;SDS011;52402;52.670;6.750;2024-01-06T03:31:44;35.60;;;33.80;;
60292;SDS011;52402;52.670;6.750;2024-01-06T03:34:10;34.30;;;32.60;;
60292;SDS011;52402;52.670;6.750;2024-01-06T03:36:36;35.90;;;34.10;;
60292;SDS011;52402;52.670;6.750;2024-01-06T03:39:05;34.30;;;32.60;;
60292;SDS011;52402;52.670;6.750;2024-01-06T03:41:32;34.83;;;33.03;;
60292;SDS011;52402;52.670;6.750;2024-01-06T03:43:57;35.20;;;33.42;;
60292;SDS011;52402;52.670;6.750;2024-01-06T03:46:23;36.08;;;34.28;;
60292;SDS011;52402;52.670;6.750;2024-01-06T03:48:49;35.92;;;34.13;;
60292;SDS011;52402;52.670;6.750;2024-01-06T03:51:15;35.33;;;33.53;;
60292;SDS011;52402;52.670;6.750;2024-01-06T03:53:40;35.15;;;33.38;;
60292;SDS011;52402;52.670;6.750;2024-01-06T03:56:06;36.92;;;35.08;;
60292;SDS011;52402;52.670;6.750;2024-01-06T03:58:32;36.38;;;34.58;;
60292;SDS011;52402;52.670;6.750;2024-01-06T04:00:58;34.83;;;33.10;;
60292;SDS011;52402;52.670;6.750;2024-01-06T04:03:23;35.40;;;33.60;;
60292;SDS011;52402;52.670;6.750;2024-01-06T04:05:49;34.92;;;33.20;;
60292;SDS011;52402;52.670;6.750;2024-01-06T04:08:15;35.58;;;33.78;;
60292;SDS011;52402;52.670;6.750;2024-01-06T04:10:40;37.08;;;35.28;;
60292;SDS011;52402;52.670;6.750;2024-01-06T04:13:07;36.58;;;34.78;;
60292;SDS011;52402;52.670;6.750;2024-01-06T04:15:32;33.40;;;31.70;;
60292;SDS011;52402;52.670;6.750;2024-01-06T04:18:01;34.55;;;32.85;;
60292;SDS011;52402;52.670;6.750;2024-01-06T04:20:28;33.88;;;32.17;;
60292;SDS011;52402;52.670;6.750;2024-01-06T04:22:54;35.60;;;33.80;;
60292;SDS011;52402;52.670;6.750;2024-01-06T04:25:20;33.88;;;32.17;;
60292;SDS011;52402;52.670;6.750;2024-01-06T04:27:46;35.78;;;33.97;;
60292;SDS011;52402;52.670;6.750;2024-01-06T04:30:13;35.88;;;34.08;;
60292;SDS011;52402;52.670;6.750;2024-01-06T04:32:39;34.63;;;32.92;;
60292;SDS011;52402;52.670;6.750;2024-01-06T04:35:05;35.53;;;33.72;;
60292;SDS011;52402;52.670;6.750;2024-01-06T04:37:31;35.30;;;33.50;;
60292;SDS011;52402;52.670;6.750;2024-01-06T04:39:57;34.03;;;32.33;;
60292;SDS011;52402;52.670;6.750;2024-01-06T04:42:22;33.60;;;31.90;;
60292;SDS011;52402;52.670;6.750;2024-01-06T04:44:49;33.30;;;31.60;;
60292;SDS011;52402;52.670;6.750;2024-01-06T04:47:14;35.80;;;34.00;;
60292;SDS011;52402;52.670;6.750;2024-01-06T04:49:40;35.33;;;33.53;;
60292;SDS011;52402;52.670;6.750;2024-01-06T04:52:06;35.80;;;34.00;;
60292;SDS011;52402;52.670;6.750;2024-01-06T04:54:32;33.08;;;31.38;;
60292;SDS011;52402;52.670;6.750;2024-01-06T04:56:58;35.25;;;33.45;;
60292;SDS011;52402;52.670;6.750;2024-01-06T04:59:24;34.60;;;32.90;;
60292;SDS011;52402;52.670;6.750;2024-01-06T05:01:50;36.25;;;34.45;;
60292;SDS011;52402;52.670;6.750;2024-01-06T05:04:17;36.28;;;34.47;;
60292;SDS011;52402;52.670;6.750;2024-01-06T05:06:43;34.00;;;32.30;;
60292;SDS011;52402;52.670;6.750;2024-01-06T05:09:08;32.83;;;31.23;;
60292;SDS011;52402;52.670;6.750;2024-01-06T05:11:34;33.80;;;32.10;;
60292;SDS011;52402;52.670;6.750;2024-01-06T05:14:00;33.53;;;31.83;;
60292;SDS011;52402;52.670;6.750;2024-01-06T05:16:26;34.20;;;32.50;;
60292;SDS011;52402;52.670;6.750;2024-01-06T05:18:52;34.70;;;33.00;;
60292;SDS011;52402;52.670;6.750;2024-01-06T05:21:18;34.75;;;33.05;;
60292;SDS011;52402;52.670;6.750;2024-01-06T05:23:44;34.30;;;32.60;;
60292;SDS011;52402;52.670;6.750;2024-01-06T05:26:10;33.10;;;31.50;;
60292;SDS011;52402;52.670;6.750;2024-01-06T05:28:36;33.78;;;32.08;;
60292;SDS011;52402;52.670;6.750;2024-01-06T05:31:02;35.40;;;33.67;;
60292;SDS011;52402;52.670;6.750;2024-01-06T05:33:28;35.22;;;33.50;;
60292;SDS011;52402;52.670;6.750;2024-01-06T05:35:53;35.50;;;33.70;;
60292;SDS011;52402;52.670;6.750;2024-01-06T05:38:19;34.60;;;32.90;;
60292;SDS011;52402;52.670;6.750;2024-01-06T05:40:44;35.15;;;33.45;;
60292;SDS011;52402;52.670;6.750;2024-01-06T05:43:10;35.88;;;34.10;;
60292;SDS011;52402;52.670;6.750;2024-01-06T05:45:35;35.92;;;34.15;;
60292;SDS011;52402;52.670;6.750;2024-01-06T05:48:02;34.75;;;33.05;;
60292;SDS011;52402;52.670;6.750;2024-01-06T05:50:29;35.05;;;33.35;;
60292;SDS011;52402;52.670;6.750;2024-01-06T05:52:55;34.22;;;32.53;;
60292;SDS011;52402;52.670;6.750;2024-01-06T05:55:20;32.08;;;30.48;;
60292;SDS011;52402;52.670;6.750;2024-01-06T05:57:46;34.15;;;32.45;;
60292;SDS011;52402;52.670;6.750;2024-01-06T06:00:12;35.55;;;33.75;;
60292;SDS011;52402;52.670;6.750;2024-01-06T06:02:38;36.40;;;34.60;;
60292;SDS011;52402;52.670;6.750;2024-01-06T06:05:04;36.95;;;35.15;;
60292;SDS011;52402;52.670;6.750;2024-01-06T06:07:30;37.47;;;35.67;;
60292;SDS011;52402;52.670;6.750;2024-01-06T06:09:56;36.35;;;34.55;;
60292;SDS011;52402;52.670;6.750;2024-01-06T06:12:21;38.25;;;36.35;;
60292;SDS011;52402;52.670;6.750;2024-01-06T06:14:47;37.25;;;35.45;;
60292;SDS011;52402;52.670;6.750;2024-01-06T06:17:12;36.88;;;35.08;;
60292;SDS011;52402;52.670;6.750;2024-01-06T06:19:38;35.95;;;34.15;;
60292;SDS011;52402;52.670;6.750;2024-01-06T06:22:04;35.38;;;33.67;;
60292;SDS011;52402;52.670;6.750;2024-01-06T06:24:29;34.55;;;32.85;;
60292;SDS011;52402;52.670;6.750;2024-01-06T06:26:55;35.40;;;33.63;;
60292;SDS011;52402;52.670;6.750;2024-01-06T06:29:21;35.20;;;33.50;;
60292;SDS011;52402;52.670;6.750;2024-01-06T06:31:46;35.47;;;33.72;;
60292;SDS011;52402;52.670;6.750;2024-01-06T06:34:12;35.83;;;34.03;;
60292;SDS011;52402;52.670;6.750;2024-01-06T06:36:38;34.22;;;32.53;;
60292;SDS011;52402;52.670;6.750;2024-01-06T06:39:05;35.42;;;33.67;;
60292;SDS011;52402;52.670;6.750;2024-01-06T06:41:30;34.63;;;32.92;;
60292;SDS011;52402;52.670;6.750;2024-01-06T06:43:57;34.15;;;32.45;;
60292;SDS011;52402;52.670;6.750;2024-01-06T06:46:22;35.20;;;33.47;;
60292;SDS011;52402;52.670;6.750;2024-01-06T06:48:48;32.38;;;30.77;;
60292;SDS011;52402;52.670;6.750;2024-01-06T06:51:15;32.38;;;30.77;;
60292;SDS011;52402;52.670;6.750;2024-01-06T06:53:41;33.97;;;32.28;;
60292;SDS011;52402;52.670;6.750;2024-01-06T06:56:06;33.75;;;32.05;;
60292;SDS011;52402;52.670;6.750;2024-01-06T06:58:32;34.55;;;32.85;;
60292;SDS011;52402;52.670;6.750;2024-01-06T07:00:58;34.97;;;33.28;;
60292;SDS011;52402;52.670;6.750;2024-01-06T07:03:24;35.17;;;33.47;;
60292;SDS011;52402;52.670;6.750;2024-01-06T07:05:49;32.53;;;30.92;;
60292;SDS011;52402;52.670;6.750;2024-01-06T07:08:15;34.15;;;32.45;;
60292;SDS011;52402;52.670;6.750;2024-01-06T07:10:41;33.97;;;32.28;;
60292;SDS011;52402;52.670;6.750;2024-01-06T07:13:06;33.75;;;32.05;;
60292;SDS011;52402;52.670;6.750;2024-01-06T07:15:32;33.90;;;32.22;;
60292;SDS011;52402;52.670;6.750;2024-01-06T07:17:58;34.80;;;33.10;;
60292;SDS011;52402;52.670;6.750;2024-01-06T07:20:23;34.42;;;32.72;;
60292;SDS011;52402;52.670;6.750;2024-01-06T07:22:49;34.17;;;32.47;;
60292;SDS011;52402;52.670;6.750;2024-01-06T07:25:14;33.40;;;31.80;;
60292;SDS011;52402;52.670;6.750;2024-01-06T07:27:40;33.72;;;32.08;;
60292;SDS011;52402;52.670;6.750;2024-01-06T07:30:06;32.60;;;31.00;;
60292;SDS011;52402;52.670;6.750;2024-01-06T07:32:34;32.95;;;31.27;;
60292;SDS011;52402;52.670;6.750;2024-01-06T07:35:00;34.20;;;32.50;;
60292;SDS011;52402;52.670;6.750;2024-01-06T07:37:25;31.85;;;30.25;;
60292;SDS011;52402;52.670;6.750;2024-01-06T07:39:51;32.33;;;30.73;;
60292;SDS011;52402;52.670;6.750;2024-01-06T07:42:17;33.25;;;31.65;;
60292;SDS011;52402;52.670;6.750;2024-01-06T07:44:43;31.60;;;30.00;;
60292;SDS011;52402;52.670;6.750;2024-01-06T07:47:09;34.40;;;32.70;;
60292;SDS011;52402;52.670;6.750;2024-01-06T07:49:35;31.88;;;30.27;;
60292;SDS011;52402;52.670;6.750;2024-01-06T07:52:01;34.60;;;32.90;;
60292;SDS011;52402;52.670;6.750;2024-01-06T07:54:27;32.63;;;31.02;;
60292;SDS011;52402;52.670;6.750;2024-01-06T07:56:53;34.42;;;32.72;;
60292;SDS011;52402;52.670;6.750;2024-01-06T07:59:18;32.80;;;31.13;;
60292;SDS011;52402;52.670;6.750;2024-01-06T08:01:44;33.63;;;31.92;;
60292;SDS011;52402;52.670;6.750;2024-01-06T08:04:09;33.65;;;31.95;;
60292;SDS011;52402;52.670;6.750;2024-01-06T08:06:35;32.65;;;30.95;;
60292;SDS011;52402;52.670;6.750;2024-01-06T08:09:01;32.17;;;30.67;;
60292;SDS011;52402;52.670;6.750;2024-01-06T08:11:26;30.95;;;29.45;;
60292;SDS011;52402;52.670;6.750;2024-01-06T08:13:52;33.92;;;32.22;;
60292;SDS011;52402;52.670;6.750;2024-01-06T08:16:25;32.20;;;30.60;;
60292;SDS011;52402;52.670;6.750;2024-01-06T08:18:50;32.00;;;30.40;;
60292;SDS011;52402;52.670;6.750;2024-01-06T08:21:16;31.75;;;30.15;;
60292;SDS011;52402;52.670;6.750;2024-01-06T08:23:41;30.98;;;29.38;;
60292;SDS011;52402;52.670;6.750;2024-01-06T08:26:07;31.05;;;29.45;;
60292;SDS011;52402;52.670;6.750;2024-01-06T08:28:33;30.80;;;29.20;;
60292;SDS011;52402;52.670;6.750;2024-01-06T08:30:58;29.95;;;28.35;;
60292;SDS011;52402;52.670;6.750;2024-01-06T08:33:24;30.63;;;29.02;;
60292;SDS011;52402;52.670;6.750;2024-01-06T08:35:50;31.98;;;30.33;;
60292;SDS011;52402;52.670;6.750;2024-01-06T08:38:15;30.35;;;28.75;;
60292;SDS011;52402;52.670;6.750;2024-01-06T08:40:41;29.00;;;27.50;;
60292;SDS011;52402;52.670;6.750;2024-01-06T08:43:07;30.85;;;29.25;;
60292;SDS011;52402;52.670;6.750;2024-01-06T08:45:32;30.02;;;28.50;;
60292;SDS011;52402;52.670;6.750;2024-01-06T08:47:58;29.80;;;28.30;;
60292;SDS011;52402;52.670;6.750;2024-01-06T08:50:23;30.05;;;28.45;;
60292;SDS011;52402;52.670;6.750;2024-01-06T08:52:49;30.50;;;28.90;;
60292;SDS011;52402;52.670;6.750;2024-01-06T08:55:15;30.98;;;29.38;;
60292;SDS011;52402;52.670;6.750;2024-01-06T08:57:41;30.13;;;28.63;;
60292;SDS011;52402;52.670;6.750;2024-01-06T09:00:07;30.10;;;28.55;;
60292;SDS011;52402;52.670;6.750;2024-01-06T09:02:34;28.80;;;27.30;;
60292;SDS011;52402;52.670;6.750;2024-01-06T09:05:00;29.20;;;27.70;;
60292;SDS011;52402;52.670;6.750;2024-01-06T09:07:25;29.08;;;27.58;;
60292;SDS011;52402;52.670;6.750;2024-01-06T09:09:51;28.63;;;27.13;;
60292;SDS011;52402;52.670;6.750;2024-01-06T09:12:16;28.90;;;27.40;;
60292;SDS011;52402;52.670;6.750;2024-01-06T09:14:42;29.58;;;28.08;;
60292;SDS011;52402;52.670;6.750;2024-01-06T09:17:07;29.38;;;27.88;;
60292;SDS011;52402;52.670;6.750;2024-01-06T09:19:33;29.98;;;28.48;;
60292;SDS011;52402;52.670;6.750;2024-01-06T09:21:59;28.98;;;27.48;;
60292;SDS011;52402;52.670;6.750;2024-01-06T09:24:24;29.92;;;28.42;;
60292;SDS011;52402;52.670;6.750;2024-01-06T09:26:50;28.20;;;26.80;;
60292;SDS011;52402;52.670;6.750;2024-01-06T09:29:16;28.55;;;27.15;;
60292;SDS011;52402;52.670;6.750;2024-01-06T09:31:42;28.35;;;26.95;;
60292;SDS011;52402;52.670;6.750;2024-01-06T09:34:11;28.95;;;27.45;;
60292;SDS011;52402;52.670;6.750;2024-01-06T09:36:37;29.27;;;27.77;;
60292;SDS011;52402;52.670;6.750;2024-01-06T09:39:03;28.00;;;26.50;;
60292;SDS011;52402;52.670;6.750;2024-01-06T09:41:29;28.23;;;26.77;;
60292;SDS011;52402;52.670;6.750;2024-01-06T09:43:55;28.77;;;27.27;;
60292;SDS011;52402;52.670;6.750;2024-01-06T09:46:23;27.65;;;26.25;;
60292;SDS011;52402;52.670;6.750;2024-01-06T09:48:51;26.93;;;25.53;;
60292;SDS011;52402;52.670;6.750;2024-01-06T09:51:18;27.23;;;25.83;;
60292;SDS011;52402;52.670;6.750;2024-01-06T09:56:25;27.75;;;26.25;;
60292;SDS011;52402;52.670;6.750;2024-01-06T09:58:52;26.50;;;25.10;;
60292;SDS011;52402;52.670;6.750;2024-01-06T10:01:18;26.05;;;24.65;;
60292;SDS011;52402;52.670;6.750;2024-01-06T10:03:43;26.20;;;24.80;;
60292;SDS011;52402;52.670;6.750;2024-01-06T10:06:10;26.83;;;25.42;;
60292;SDS011;52402;52.670;6.750;2024-01-06T10:08:36;24.65;;;23.35;;
60292;SDS011;52402;52.670;6.750;2024-01-06T10:11:05;24.02;;;22.80;;
60292;SDS011;52402;52.670;6.750;2024-01-06T10:13:31;24.52;;;23.23;;
60292;SDS011;52402;52.670;6.750;2024-01-06T10:15:57;24.95;;;23.65;;
60292;SDS011;52402;52.670;6.750;2024-01-06T10:18:24;25.60;;;24.30;;
60292;SDS011;52402;52.670;6.750;2024-01-06T10:20:52;25.80;;;24.42;;
60292;SDS011;52402;52.670;6.750;2024-01-06T10:23:18;25.23;;;23.92;;
60292;SDS011;52402;52.670;6.750;2024-01-06T10:25:44;25.50;;;24.13;;
60292;SDS011;52402;52.670;6.750;2024-01-06T10:28:12;24.17;;;22.88;;
60292;SDS011;52402;52.670;6.750;2024-01-06T10:30:41;24.15;;;22.85;;
60292;SDS011;52402;52.670;6.750;2024-01-06T10:33:10;24.17;;;22.88;;
60292;SDS011;52402;52.670;6.750;2024-01-06T10:35:36;25.05;;;23.75;;
60292;SDS011;52402;52.670;6.750;2024-01-06T10:38:02;24.00;;;22.70;;
60292;SDS011;52402;52.670;6.750;2024-01-06T10:40:28;25.77;;;24.45;;
60292;SDS011;52402;52.670;6.750;2024-01-06T10:42:54;24.50;;;23.20;;
60292;SDS011;52402;52.670;6.750;2024-01-06T10:45:22;24.45;;;23.15;;
60292;SDS011;52402;52.670;6.750;2024-01-06T10:47:48;24.52;;;23.23;;
60292;SDS011;52402;52.670;6.750;2024-01-06T10:50:14;23.85;;;22.58;;
60292;SDS011;52402;52.670;6.750;2024-01-06T10:52:42;24.38;;;23.08;;
60292;SDS011;52402;52.670;6.750;2024-01-06T10:55:09;23.63;;;22.42;;
60292;SDS011;52402;52.670;6.750;2024-01-06T10:57:34;24.25;;;22.95;;
60292;SDS011;52402;52.670;6.750;2024-01-06T11:00:03;23.85;;;22.55;;
60292;SDS011;52402;52.670;6.750;2024-01-06T11:02:31;24.15;;;22.85;;
60292;SDS011;52402;52.670;6.750;2024-01-06T11:04:57;23.00;;;21.80;;
60292;SDS011;52402;52.670;6.750;2024-01-06T11:07:24;24.33;;;23.02;;
60292;SDS011;52402;52.670;6.750;2024-01-06T11:09:56;24.13;;;22.83;;
60292;SDS011;52402;52.670;6.750;2024-01-06T11:12:25;25.50;;;24.20;;
60292;SDS011;52402;52.670;6.750;2024-01-06T11:14:51;24.65;;;23.35;;
60292;SDS011;52402;52.670;6.750;2024-01-06T11:20:23;23.92;;;22.63;;
60292;SDS011;52402;52.670;6.750;2024-01-06T11:22:52;24.23;;;22.92;;
60292;SDS011;52402;52.670;6.750;2024-01-06T11:25:19;23.63;;;22.42;;
60292;SDS011;52402;52.670;6.750;2024-01-06T11:27:46;24.33;;;23.08;;
60292;SDS011;52402;52.670;6.750;2024-01-06T11:30:20;23.98;;;22.73;;
60292;SDS011;52402;52.670;6.750;2024-01-06T11:32:48;23.10;;;21.90;;
60292;SDS011;52402;52.670;6.750;2024-01-06T11:35:17;23.90;;;22.70;;
60292;SDS011;52402;52.670;6.750;2024-01-06T11:43:10;24.17;;;22.88;;
60292;SDS011;52402;52.670;6.750;2024-01-06T11:45:38;24.50;;;23.20;;
60292;SDS011;52402;52.670;6.750;2024-01-06T11:48:07;24.38;;;23.08;;
60292;SDS011;52402;52.670;6.750;2024-01-06T11:50:34;24.83;;;23.52;;
60292;SDS011;52402;52.670;6.750;2024-01-06T11:53:01;24.88;;;23.58;;
60292;SDS011;52402;52.670;6.750;2024-01-06T11:55:28;26.65;;;25.25;;
60292;SDS011;52402;52.670;6.750;2024-01-06T11:58:00;26.00;;;24.70;;
60292;SDS011;52402;52.670;6.750;2024-01-06T12:00:31;23.80;;;22.60;;
60292;SDS011;52402;52.670;6.750;2024-01-06T12:02:58;23.80;;;22.60;;
60292;SDS011;52402;52.670;6.750;2024-01-06T12:05:25;23.95;;;22.75;;
60292;SDS011;52402;52.670;6.750;2024-01-06T12:07:59;23.33;;;22.13;;
60292;SDS011;52402;52.670;6.750;2024-01-06T12:10:26;23.92;;;22.73;;
60292;SDS011;52402;52.670;6.750;2024-01-06T12:13:11;23.02;;;21.83;;
60292;SDS011;52402;52.670;6.750;2024-01-06T12:15:37;23.50;;;22.30;;
60292;SDS011;52402;52.670;6.750;2024-01-06T12:18:04;23.05;;;21.85;;
60292;SDS011;52402;52.670;6.750;2024-01-06T12:20:31;22.63;;;21.42;;
60292;SDS011;52402;52.670;6.750;2024-01-06T12:22:57;23.08;;;21.88;;
60292;SDS011;52402;52.670;6.750;2024-01-06T12:25:25;23.33;;;22.13;;
60292;SDS011;52402;52.670;6.750;2024-01-06T12:27:53;24.00;;;22.80;;
60292;SDS011;52402;52.670;6.750;2024-01-06T12:30:22;23.27;;;22.08;;
60292;SDS011;52402;52.670;6.750;2024-01-06T12:32:48;24.35;;;23.13;;
60292;SDS011;52402;52.670;6.750;2024-01-06T12:35:15;25.02;;;23.73;;
60292;SDS011;52402;52.670;6.750;2024-01-06T12:37:44;24.75;;;23.45;;
60292;SDS011;52402;52.670;6.750;2024-01-06T12:40:10;25.90;;;24.60;;
60292;SDS011;52402;52.670;6.750;2024-01-06T12:42:38;24.35;;;23.05;;
60292;SDS011;52402;52.670;6.750;2024-01-06T12:45:04;24.02;;;22.83;;
60292;SDS011;52402;52.670;6.750;2024-01-06T12:47:31;24.25;;;23.02;;
60292;SDS011;52402;52.670;6.750;2024-01-06T12:50:00;24.05;;;22.85;;
60292;SDS011;52402;52.670;6.750;2024-01-06T12:52:25;23.52;;;22.33;;
60292;SDS011;52402;52.670;6.750;2024-01-06T12:54:51;22.85;;;21.65;;
60292;SDS011;52402;52.670;6.750;2024-01-06T12:57:17;24.02;;;22.83;;
60292;SDS011;52402;52.670;6.750;2024-01-06T12:59:43;25.17;;;23.88;;
60292;SDS011;52402;52.670;6.750;2024-01-06T13:02:09;25.42;;;24.13;;
60292;SDS011;52402;52.670;6.750;2024-01-06T13:04:34;25.10;;;23.80;;
60292;SDS011;52402;52.670;6.750;2024-01-06T13:07:00;26.23;;;24.92;;
60292;SDS011;52402;52.670;6.750;2024-01-06T13:09:26;25.05;;;23.75;;
60292;SDS011;52402;52.670;6.750;2024-01-06T13:11:53;24.90;;;23.60;;
60292;SDS011;52402;52.670;6.750;2024-01-06T13:14:21;25.30;;;24.00;;
60292;SDS011;52402;52.670;6.750;2024-01-06T13:16:47;26.63;;;25.23;;
60292;SDS011;52402;52.670;6.750;2024-01-06T13:19:12;25.10;;;23.80;;
60292;SDS011;52402;52.670;6.750;2024-01-06T13:21:38;24.67;;;23.38;;
60292;SDS011;52402;52.670;6.750;2024-01-06T13:24:05;24.60;;;23.30;;
60292;SDS011;52402;52.670;6.750;2024-01-06T13:26:31;26.52;;;25.13;;
60292;SDS011;52402;52.670;6.750;2024-01-06T13:28:57;25.02;;;23.73;;
60292;SDS011;52402;52.670;6.750;2024-01-06T13:31:23;25.50;;;24.20;;
60292;SDS011;52402;52.670;6.750;2024-01-06T13:33:49;25.45;;;24.15;;
60292;SDS011;52402;52.670;6.750;2024-01-06T13:36:17;25.27;;;23.98;;
60292;SDS011;52402;52.670;6.750;2024-01-06T13:38:43;26.27;;;24.98;;
60292;SDS011;52402;52.670;6.750;2024-01-06T13:41:09;24.65;;;23.35;;
60292;SDS011;52402;52.670;6.750;2024-01-06T13:43:34;24.65;;;23.35;;
60292;SDS011;52402;52.670;6.750;2024-01-06T13:46:00;23.42;;;22.23;;
60292;SDS011;52402;52.670;6.750;2024-01-06T13:48:26;24.92;;;23.63;;
60292;SDS011;52402;52.670;6.750;2024-01-06T13:50:52;24.77;;;23.48;;
60292;SDS011;52402;52.670;6.750;2024-01-06T13:53:18;25.50;;;24.20;;
60292;SDS011;52402;52.670;6.750;2024-01-06T13:55:43;26.58;;;25.17;;
60292;SDS011;52402;52.670;6.750;2024-01-06T13:58:09;26.42;;;25.02;;
60292;SDS011;52402;52.670;6.750;2024-01-06T14:00:35;25.15;;;23.85;;
60292;SDS011;52402;52.670;6.750;2024-01-06T14:03:02;26.50;;;25.10;;
60292;SDS011;52402;52.670;6.750;2024-01-06T14:05:29;24.67;;;23.38;;
60292;SDS011;52402;52.670;6.750;2024-01-06T14:07:57;25.88;;;24.52;;
60292;SDS011;52402;52.670;6.750;2024-01-06T14:10:23;25.15;;;23.85;;
60292;SDS011;52402;52.670;6.750;2024-01-06T14:12:48;23.55;;;22.35;;
60292;SDS011;52402;52.670;6.750;2024-01-06T14:15:15;25.13;;;23.83;;
60292;SDS011;52402;52.670;6.750;2024-01-06T14:17:42;24.50;;;23.25;;
60292;SDS011;52402;52.670;6.750;2024-01-06T14:20:14;24.85;;;23.55;;
60292;SDS011;52402;52.670;6.750;2024-01-06T14:22:42;26.15;;;24.80;;
60292;SDS011;52402;52.670;6.750;2024-01-06T14:25:09;25.50;;;24.20;;
60292;SDS011;52402;52.670;6.750;2024-01-06T14:27:34;25.65;;;24.35;;
60292;SDS011;52402;52.670;6.750;2024-01-06T14:30:00;26.88;;;25.48;;
60292;SDS011;52402;52.670;6.750;2024-01-06T14:32:26;26.23;;;24.92;;